createdAt,value
2018-02-09T00:02:59.177Z,-4.47
2018-02-09T00:09:03.662Z,-4.60
2018-02-09T00:15:08.473Z,-4.65
2018-02-09T00:21:13.722Z,-4.64
2018-02-09T00:27:18.231Z,-4.67
2018-02-09T00:33:23.053Z,-4.76
2018-02-09T00:39:27.550Z,-4.88
2018-02-09T00:45:32.104Z,-5.00
2018-02-09T00:51:36.677Z,-5.13
2018-02-09T00:57:41.179Z,-5.22
2018-02-09T01:03:45.675Z,-5.13
2018-02-09T01:09:50.204Z,-4.99
2018-02-09T01:15:55.114Z,-4.91
2018-02-09T01:21:59.614Z,-4.88
2018-02-09T01:28:04.119Z,-4.95
2018-02-09T01:34:08.728Z,-4.97
2018-02-09T01:40:13.572Z,-5.01
2018-02-09T01:46:18.090Z,-5.07
2018-02-09T01:52:22.836Z,-5.13
2018-02-09T01:58:27.343Z,-5.19
2018-02-09T02:04:32.638Z,-5.17
2018-02-09T02:10:37.958Z,-5.24
2018-02-09T02:16:42.445Z,-5.23
2018-02-09T02:22:47.155Z,-5.35
2018-02-09T02:28:53.181Z,-5.45
2018-02-09T02:34:57.709Z,-5.50
2018-02-09T02:41:02.199Z,-5.50
2018-02-09T02:47:06.666Z,-5.52
2018-02-09T02:53:11.300Z,-5.50
2018-02-09T02:59:15.808Z,-5.51
2018-02-09T03:05:20.888Z,-5.51
2018-02-09T03:11:26.517Z,-5.36
2018-02-09T03:17:31.120Z,-5.31
2018-02-09T03:23:35.683Z,-5.29
2018-02-09T03:29:40.172Z,-5.30
2018-02-09T03:35:44.649Z,-5.34
2018-02-09T03:41:49.211Z,-5.49
2018-02-09T03:47:53.988Z,-5.51
2018-02-09T03:53:58.636Z,-5.49
2018-02-09T04:00:03.260Z,-5.47
2018-02-09T04:06:07.834Z,-5.50
2018-02-09T04:12:12.318Z,-5.69
2018-02-09T04:18:16.978Z,-5.76
2018-02-09T04:24:22.358Z,-5.81
2018-02-09T04:30:26.948Z,-5.90
2018-02-09T04:36:32.291Z,-5.88
2018-02-09T04:42:36.913Z,-5.80
2018-02-09T04:48:41.551Z,-5.77
2018-02-09T04:54:46.420Z,-5.85
2018-02-09T05:00:51.743Z,-5.81
2018-02-09T05:06:56.383Z,-5.94
2018-02-09T05:13:01.003Z,-6.03
2018-02-09T05:19:05.838Z,-6.01
2018-02-09T05:25:10.591Z,-5.95
2018-02-09T05:31:15.851Z,-5.94
2018-02-09T05:37:20.633Z,-5.97
2018-02-09T05:43:25.274Z,-5.97
2018-02-09T05:49:29.943Z,-6.02
2018-02-09T05:55:35.263Z,-6.02
2018-02-09T06:01:39.956Z,-6.21
2018-02-09T06:07:44.588Z,-6.21
2018-02-09T06:13:49.110Z,-6.20
2018-02-09T06:19:54.143Z,-6.30
2018-02-09T06:25:58.770Z,-6.18
2018-02-09T06:32:03.429Z,-6.17
2018-02-09T06:38:08.685Z,-6.10
2018-02-09T06:44:13.173Z,-6.08
2018-02-09T06:50:17.768Z,-5.95
2018-02-09T06:56:22.858Z,-5.83
2018-02-09T07:02:27.754Z,-5.83
2018-02-09T07:08:32.237Z,-5.76
2018-02-09T07:14:36.893Z,-5.73
2018-02-09T07:20:41.482Z,-5.79
2018-02-09T07:26:47.739Z,-5.81
2018-02-09T07:32:53.020Z,-5.62
2018-02-09T07:38:57.574Z,-5.42
2018-02-09T07:45:03.940Z,-5.01
2018-02-09T07:51:08.468Z,-4.73
2018-02-09T07:57:12.948Z,-4.39
2018-02-09T08:03:18.248Z,-4.21
2018-02-09T08:09:23.069Z,-3.97
2018-02-09T08:15:27.649Z,-3.85
2018-02-09T08:21:32.904Z,-3.75
2018-02-09T08:27:37.414Z,-3.51
2018-02-09T08:33:42.688Z,-3.42
2018-02-09T08:39:47.178Z,-3.25
2018-02-09T08:45:53.092Z,-3.01
2018-02-09T08:51:58.338Z,-2.90
2018-02-09T08:58:03.005Z,-2.53
2018-02-09T09:04:07.530Z,-2.15
2018-02-09T09:10:12.829Z,-1.81
2018-02-09T09:16:18.147Z,-1.85
2018-02-09T09:22:22.826Z,-1.53
2018-02-09T09:28:27.445Z,-1.38
2018-02-09T09:34:32.768Z,-1.56
2018-02-09T09:40:38.046Z,-1.51
2018-02-09T09:46:42.551Z,-1.44
2018-02-09T09:52:47.068Z,-1.27
2018-02-09T09:58:51.605Z,-1.09
2018-02-09T10:04:56.206Z,-1.16
2018-02-09T10:11:01.509Z,-1.22
2018-02-09T10:17:06.766Z,-1.16
2018-02-09T10:23:11.275Z,-0.95
2018-02-09T10:29:15.781Z,-0.92
2018-02-09T10:35:21.074Z,-0.84
2018-02-09T10:41:25.757Z,-0.94
2018-02-09T10:47:30.397Z,-0.81
2018-02-09T10:53:35.008Z,-0.72
2018-02-09T10:59:39.633Z,-0.66
2018-02-09T11:05:44.287Z,-0.38
2018-02-09T11:11:48.924Z,-0.39
2018-02-09T11:17:53.945Z,-0.04
2018-02-09T11:23:58.528Z,0.27
2018-02-09T11:30:03.094Z,0.45
2018-02-09T11:36:07.613Z,0.57
2018-02-09T11:42:12.304Z,0.76
2018-02-09T11:48:16.803Z,0.59
2018-02-09T11:54:21.587Z,0.66
2018-02-09T12:00:26.274Z,0.80
2018-02-09T12:06:30.749Z,0.71
2018-02-09T12:12:35.266Z,0.72
2018-02-09T12:18:40.032Z,0.79
2018-02-09T12:24:45.413Z,0.94
2018-02-09T12:30:50.635Z,0.92
2018-02-09T12:36:56.240Z,0.99
2018-02-09T12:43:00.964Z,0.71
2018-02-09T12:49:05.448Z,0.70
2018-02-09T12:55:09.938Z,0.68
2018-02-09T13:01:14.579Z,0.63
2018-02-09T13:07:19.443Z,0.69
2018-02-09T13:13:24.288Z,0.73
2018-02-09T13:19:28.970Z,1.01
2018-02-09T13:25:33.490Z,0.79
2018-02-09T13:31:39.570Z,0.98
2018-02-09T13:37:44.079Z,1.02
2018-02-09T13:43:48.553Z,1.02
2018-02-09T13:49:53.264Z,1.04
2018-02-09T13:55:57.893Z,1.13
2018-02-09T14:02:02.528Z,1.08
2018-02-09T14:08:07.056Z,1.14
2018-02-09T14:14:11.529Z,1.09
2018-02-09T14:20:16.129Z,1.08
2018-02-09T14:26:21.405Z,1.18
2018-02-09T14:32:25.977Z,1.17
2018-02-09T14:38:30.450Z,1.05
2018-02-09T14:44:34.932Z,1.07
2018-02-09T14:50:39.435Z,1.01
2018-02-09T14:56:44.662Z,0.90
2018-02-09T15:02:49.472Z,0.92
2018-02-09T15:08:54.434Z,0.81
2018-02-09T15:14:58.895Z,0.87
2018-02-09T15:21:03.427Z,0.77
2018-02-09T15:27:07.931Z,0.83
2018-02-09T15:33:12.434Z,0.75
2018-02-09T15:39:16.916Z,0.73
2018-02-09T15:45:22.204Z,0.62
2018-02-09T15:51:28.274Z,0.65
2018-02-09T15:57:32.845Z,0.63
2018-02-09T16:03:37.585Z,0.61
2018-02-09T16:09:42.127Z,0.59
2018-02-09T16:15:46.621Z,0.52
2018-02-09T16:21:51.488Z,0.45
2018-02-09T16:27:56.057Z,0.53
2018-02-09T16:34:00.655Z,0.50
2018-02-09T16:40:05.129Z,0.43
2018-02-09T16:46:09.834Z,0.37
2018-02-09T16:52:15.243Z,0.36
2018-02-09T16:58:20.112Z,0.35
2018-02-09T17:04:24.982Z,0.34
2018-02-09T17:10:29.479Z,0.33
2018-02-09T17:16:34.705Z,0.36
2018-02-09T17:22:39.171Z,0.36
2018-02-09T17:28:43.650Z,0.43
2018-02-09T17:34:48.122Z,0.36
2018-02-09T17:40:53.191Z,0.43
2018-02-09T17:46:58.426Z,0.48
2018-02-09T17:53:02.899Z,0.55
2018-02-09T17:59:07.371Z,0.59
2018-02-09T18:05:11.900Z,0.67
2018-02-09T18:11:16.510Z,0.66
2018-02-09T18:17:21.952Z,0.65
2018-02-09T18:23:27.264Z,0.62
2018-02-09T18:29:31.757Z,0.66
2018-02-09T18:35:37.093Z,0.63
2018-02-09T18:41:41.600Z,0.59
2018-02-09T18:47:46.295Z,0.52
2018-02-09T18:53:50.979Z,0.57
2018-02-09T18:59:55.575Z,0.61
2018-02-09T19:06:00.088Z,0.55
2018-02-09T19:12:04.655Z,0.51
2018-02-09T19:18:10.014Z,0.54
2018-02-09T19:24:14.613Z,0.50
2018-02-09T19:30:20.144Z,0.55
2018-02-09T19:36:24.869Z,0.59
2018-02-09T19:42:29.351Z,0.61
2018-02-09T19:48:33.998Z,0.64
2018-02-09T19:54:38.623Z,0.60
2018-02-09T20:00:43.274Z,0.56
2018-02-09T20:06:48.136Z,0.64
2018-02-09T20:12:53.033Z,0.56
2018-02-09T20:18:57.573Z,0.57
2018-02-09T20:25:02.854Z,0.55
2018-02-09T20:31:08.830Z,0.57
2018-02-09T20:37:13.317Z,0.52
2018-02-09T20:43:17.886Z,0.60
2018-02-09T20:49:22.843Z,0.61
2018-02-09T20:55:27.631Z,0.61
2018-02-09T21:01:32.927Z,0.54
2018-02-09T21:07:37.519Z,0.57
2018-02-09T21:13:42.000Z,0.57
2018-02-09T21:19:46.562Z,0.48
2018-02-09T21:25:51.090Z,0.47
2018-02-09T21:31:55.756Z,0.41
2018-02-09T21:38:00.419Z,0.48
2018-02-09T21:44:04.998Z,0.54
2018-02-09T21:50:09.549Z,0.56
2018-02-09T21:56:14.780Z,0.59
2018-02-09T22:02:19.793Z,0.63
2018-02-09T22:08:24.606Z,0.54
2018-02-09T22:14:29.917Z,0.57
2018-02-09T22:20:35.158Z,0.70
2018-02-09T22:26:39.718Z,0.54
2018-02-09T22:32:44.302Z,0.48
2018-02-09T22:38:48.950Z,0.50
2018-02-09T22:44:54.215Z,0.53
2018-02-09T22:50:58.730Z,0.40
2018-02-09T22:57:03.559Z,0.43
2018-02-09T23:03:08.166Z,0.46
2018-02-09T23:09:12.695Z,0.48
2018-02-09T23:15:17.160Z,0.45
2018-02-09T23:21:22.539Z,0.49
2018-02-09T23:27:28.011Z,0.43
2018-02-09T23:33:32.667Z,0.41
2018-02-09T23:39:37.275Z,0.27
2018-02-09T23:45:41.764Z,0.25
2018-02-09T23:51:46.408Z,0.22
2018-02-09T23:57:51.654Z,0.23
